Time;durP1;ratioP1;P1;durP2;ratioP2;P2;SDS_P1;SDS_P2;PMS_P1;PMS_P2;Temp;Humidity;BMP_temperature;BMP_pressure;BME280_temperature;BME280_humidity;BME280_pressure;Samples;Min_cycle;Max_cycle;Signal;HPM_P1;HPM_P2
2023/06/07 00:01:42;;;;;;;18.70;9.52;;;;;;;;;;5034336;28;20204;-57
2023/06/07 00:04:09;;;;;;;20.80;9.80;;;;;;;;;;5033192;28;20219;-57
2023/06/07 00:06:34;;;;;;;19.83;9.45;;;;;;;;;;5034259;28;20211;-57
2023/06/07 00:08:59;;;;;;;21.48;10.30;;;;;;;;;;5034255;28;20577;-57
2023/06/07 00:11:25;;;;;;;16.75;9.40;;;;;;;;;;5032856;28;20255;-57
2023/06/07 00:13:50;;;;;;;18.73;9.73;;;;;;;;;;5034129;28;20277;-57
2023/06/07 00:16:16;;;;;;;20.48;9.70;;;;;;;;;;5033492;28;20298;-57
2023/06/07 00:18:41;;;;;;;16.13;9.52;;;;;;;;;;5033542;28;20557;-57
2023/06/07 00:21:07;;;;;;;16.85;9.18;;;;;;;;;;5033540;28;20204;-56
2023/06/07 00:23:33;;;;;;;17.63;9.27;;;;;;;;;;5033867;28;20208;-58
2023/06/07 00:25:59;;;;;;;15.90;9.50;;;;;;;;;;5033095;28;20222;-57
2023/06/07 00:28:25;;;;;;;19.77;9.55;;;;;;;;;;5033775;28;20643;-57
2023/06/07 00:30:50;;;;;;;18.58;9.07;;;;;;;;;;5033646;28;20266;-57
2023/06/07 00:33:15;;;;;;;17.23;9.65;;;;;;;;;;5032542;28;20263;-57
2023/06/07 00:35:41;;;;;;;19.02;9.13;;;;;;;;;;5033869;28;20220;-57
2023/06/07 00:38:06;;;;;;;18.65;8.68;;;;;;;;;;5032943;28;20249;-56
2023/06/07 00:40:31;;;;;;;19.05;9.55;;;;;;;;;;5033070;28;20211;-57
2023/06/07 00:42:57;;;;;;;18.55;8.68;;;;;;;;;;5033519;28;20208;-57
2023/06/07 00:45:22;;;;;;;17.42;9.70;;;;;;;;;;5033059;28;20208;-57
2023/06/07 00:47:47;;;;;;;17.42;8.30;;;;;;;;;;5033105;28;20307;-57
2023/06/07 00:50:12;;;;;;;19.05;9.73;;;;;;;;;;5032271;28;20623;-57
2023/06/07 00:52:38;;;;;;;18.55;9.07;;;;;;;;;;5039515;28;20219;-57
2023/06/07 00:55:03;;;;;;;14.88;8.73;;;;;;;;;;5051504;28;20213;-57
2023/06/07 00:57:32;;;;;;;17.45;8.80;;;;;;;;;;5032934;28;20216;-57
2023/06/07 00:59:58;;;;;;;17.90;9.15;;;;;;;;;;5033065;28;20215;-57
2023/06/07 01:02:23;;;;;;;19.27;9.02;;;;;;;;;;5032229;28;20204;-57
2023/06/07 01:04:49;;;;;;;16.75;9.00;;;;;;;;;;5033057;28;20571;-57
2023/06/07 01:07:17;;;;;;;16.10;8.52;;;;;;;;;;5031737;28;20223;-57
2023/06/07 01:09:42;;;;;;;18.25;8.52;;;;;;;;;;5032940;28;20218;-57
2023/06/07 01:12:08;;;;;;;16.80;8.63;;;;;;;;;;5032263;28;20199;-57
2023/06/07 01:14:34;;;;;;;19.38;8.48;;;;;;;;;;5032292;28;20219;-57
2023/06/07 01:17:02;;;;;;;16.75;8.70;;;;;;;;;;5031681;28;20223;-57
2023/06/07 01:19:28;;;;;;;17.02;8.93;;;;;;;;;;5032679;28;20228;-58
2023/06/07 01:21:56;;;;;;;16.65;8.50;;;;;;;;;;5031957;28;20231;-57
2023/06/07 01:24:22;;;;;;;15.40;7.65;;;;;;;;;;5031176;28;20670;-57
2023/06/07 01:26:52;;;;;;;17.83;8.13;;;;;;;;;;5032276;28;20242;-57
2023/06/07 01:29:17;;;;;;;18.63;8.82;;;;;;;;;;5031809;28;20242;-57
2023/06/07 01:31:43;;;;;;;19.50;8.38;;;;;;;;;;5031538;28;20215;-57
2023/06/07 01:34:08;;;;;;;19.45;9.02;;;;;;;;;;5031666;28;20322;-57
2023/06/07 01:36:33;;;;;;;19.55;8.73;;;;;;;;;;5032058;28;20286;-57
2023/06/07 01:38:59;;;;;;;19.48;8.20;;;;;;;;;;5047423;28;20215;-57
2023/06/07 01:41:25;;;;;;;22.45;9.15;;;;;;;;;;5050592;28;20253;-57
2023/06/07 01:43:51;;;;;;;14.63;8.15;;;;;;;;;;5050357;28;20286;-57
2023/06/07 01:46:16;;;;;;;17.35;8.38;;;;;;;;;;5050737;28;20297;-57
2023/06/07 01:48:41;;;;;;;19.67;8.35;;;;;;;;;;5052145;28;20214;-57
2023/06/07 01:51:06;;;;;;;19.77;8.73;;;;;;;;;;5051367;28;20670;-56
2023/06/07 01:53:32;;;;;;;18.05;8.50;;;;;;;;;;5037039;28;20251;-57
2023/06/07 01:55:58;;;;;;;18.55;8.73;;;;;;;;;;5038301;28;20229;-57
2023/06/07 01:58:27;;;;;;;18.40;8.73;;;;;;;;;;5049673;28;20721;-57
2023/06/07 02:01:07;;;;;;;18.92;7.85;;;;;;;;;;5050679;28;20554;-56
2023/06/07 02:03:38;;;;;;;18.50;8.63;;;;;;;;;;5051007;28;20202;-57
2023/06/07 02:06:05;;;;;;;17.45;8.80;;;;;;;;;;5050524;28;20551;-57
2023/06/07 02:08:33;;;;;;;17.65;8.95;;;;;;;;;;5050769;28;20673;-57
2023/06/07 02:10:58;;;;;;;18.05;8.80;;;;;;;;;;5051286;28;20260;-57
2023/06/07 02:13:23;;;;;;;21.17;8.98;;;;;;;;;;5051375;28;20219;-57
2023/06/07 02:15:48;;;;;;;16.95;8.82;;;;;;;;;;5035767;28;20210;-58
2023/06/07 02:18:14;;;;;;;16.95;8.73;;;;;;;;;;5031004;28;20219;-57
2023/06/07 02:20:39;;;;;;;19.45;8.63;;;;;;;;;;5030622;28;20273;-57
2023/06/07 02:23:04;;;;;;;21.67;9.63;;;;;;;;;;5031463;28;20219;-57
2023/06/07 02:25:30;;;;;;;21.48;9.43;;;;;;;;;;5031530;28;20220;-57
2023/06/07 02:27:56;;;;;;;17.95;9.35;;;;;;;;;;5031926;28;20670;-57
2023/06/07 02:30:22;;;;;;;21.13;9.50;;;;;;;;;;5031154;28;20314;-57
2023/06/07 02:32:49;;;;;;;17.75;9.48;;;;;;;;;;5031313;28;20311;-58
2023/06/07 02:35:15;;;;;;;18.95;9.25;;;;;;;;;;5031420;28;20266;-57
2023/06/07 02:37:41;;;;;;;19.38;10.50;;;;;;;;;;5031825;28;20214;-57
2023/06/07 02:40:08;;;;;;;23.05;10.82;;;;;;;;;;5029628;28;20212;-57
2023/06/07 02:42:34;;;;;;;20.80;9.32;;;;;;;;;;5031956;28;20266;-57
2023/06/07 02:45:01;;;;;;;17.48;9.85;;;;;;;;;;5031589;28;20203;-57
2023/06/07 02:47:27;;;;;;;20.60;9.43;;;;;;;;;;5031037;28;20203;-57
2023/06/07 02:49:52;;;;;;;17.83;9.82;;;;;;;;;;5031815;28;20215;-57
2023/06/07 02:52:17;;;;;;;19.95;10.50;;;;;;;;;;5036303;28;20682;-57
2023/06/07 02:54:43;;;;;;;20.35;10.43;;;;;;;;;;5051056;28;20227;-57
2023/06/07 02:57:08;;;;;;;24.92;10.45;;;;;;;;;;5033468;28;20227;-56
2023/06/07 02:59:33;;;;;;;21.83;11.13;;;;;;;;;;5031396;28;20207;-57
2023/06/07 03:01:59;;;;;;;24.73;10.40;;;;;;;;;;5031156;28;20268;-57
2023/06/07 03:04:26;;;;;;;19.20;10.88;;;;;;;;;;5031061;28;20215;-57
2023/06/07 03:06:52;;;;;;;20.35;10.43;;;;;;;;;;5031072;28;20207;-57
2023/06/07 03:09:18;;;;;;;20.60;11.55;;;;;;;;;;5031174;28;20223;-57
2023/06/07 03:11:43;;;;;;;20.30;9.88;;;;;;;;;;5031634;28;20200;-57
2023/06/07 03:14:09;;;;;;;22.30;10.38;;;;;;;;;;5033346;28;20226;-57
2023/06/07 03:16:34;;;;;;;21.92;9.93;;;;;;;;;;5035168;28;20211;-57
2023/06/07 03:18:59;;;;;;;22.98;9.52;;;;;;;;;;5034984;28;20203;-57
2023/06/07 03:21:25;;;;;;;18.73;10.10;;;;;;;;;;5034121;28;20925;-57
2023/06/07 03:23:52;;;;;;;23.45;10.85;;;;;;;;;;5035182;28;20211;-57
2023/06/07 03:26:18;;;;;;;19.45;9.93;;;;;;;;;;5034146;28;20215;-57
2023/06/07 03:28:43;;;;;;;19.95;10.20;;;;;;;;;;5034404;28;20214;-57
2023/06/07 03:31:08;;;;;;;19.48;10.25;;;;;;;;;;5032832;28;20290;-56
2023/06/07 03:33:34;;;;;;;20.60;9.63;;;;;;;;;;5034606;28;20251;-57
2023/06/07 03:35:59;;;;;;;22.50;9.50;;;;;;;;;;5034129;28;20303;-57
2023/06/07 03:38:24;;;;;;;23.15;11.13;;;;;;;;;;5034439;28;20580;-57
2023/06/07 03:40:50;;;;;;;17.92;9.98;;;;;;;;;;5015126;28;20223;-57
2023/06/07 03:43:15;;;;;;;21.00;10.27;;;;;;;;;;5021460;28;20223;-57
2023/06/07 03:45:40;;;;;;;19.60;9.95;;;;;;;;;;5006933;28;20742;-57
2023/06/07 03:48:06;;;;;;;18.23;10.02;;;;;;;;;;5006708;28;20220;-57
2023/06/07 03:50:31;;;;;;;21.70;10.27;;;;;;;;;;5017211;28;20683;-57
2023/06/07 03:52:56;;;;;;;24.27;10.43;;;;;;;;;;5006397;28;20921;-57
2023/06/07 03:55:21;;;;;;;18.35;9.05;;;;;;;;;;4995980;28;20227;-57
2023/06/07 03:57:47;;;;;;;22.08;9.77;;;;;;;;;;5013651;28;20298;-57
2023/06/07 04:00:14;;;;;;;21.42;10.13;;;;;;;;;;5023325;28;20216;-57
2023/06/07 04:02:41;;;;;;;21.45;10.27;;;;;;;;;;5023922;28;20653;-57
2023/06/07 04:05:06;;;;;;;22.13;10.15;;;;;;;;;;5023300;28;20270;-56
2023/06/07 04:07:32;;;;;;;18.27;10.68;;;;;;;;;;5023651;28;20686;-57
2023/06/07 04:09:57;;;;;;;22.20;10.35;;;;;;;;;;5024281;28;20208;-57
2023/06/07 04:12:22;;;;;;;24.42;11.02;;;;;;;;;;5019917;28;20769;-57
2023/06/07 04:14:48;;;;;;;20.50;10.60;;;;;;;;;;5009682;28;20216;-57
2023/06/07 04:17:13;;;;;;;21.45;10.85;;;;;;;;;;4994944;28;20220;-57
2023/06/07 04:19:38;;;;;;;23.60;9.88;;;;;;;;;;4999763;28;20212;-57
2023/06/07 04:22:04;;;;;;;19.65;10.05;;;;;;;;;;5003697;28;20616;-57
2023/06/07 04:24:30;;;;;;;23.92;10.27;;;;;;;;;;5012924;28;20477;-57
2023/06/07 04:26:56;;;;;;;20.10;9.65;;;;;;;;;;5015204;28;20208;-56
2023/06/07 04:29:21;;;;;;;26.55;9.82;;;;;;;;;;5003720;28;20547;-57
2023/06/07 04:31:49;;;;;;;16.85;9.57;;;;;;;;;;5009251;28;20243;-57
2023/06/07 04:34:17;;;;;;;23.10;10.80;;;;;;;;;;5022692;28;20224;-57
2023/06/07 04:36:42;;;;;;;22.60;10.95;;;;;;;;;;5015749;28;20493;-57
2023/06/07 04:39:09;;;;;;;21.98;9.65;;;;;;;;;;5014532;28;20674;-57
2023/06/07 04:41:36;;;;;;;27.08;12.52;;;;;;;;;;5016150;28;20216;-57
2023/06/07 04:44:03;;;;;;;22.27;10.35;;;;;;;;;;5022447;28;20212;-57
2023/06/07 04:46:28;;;;;;;20.48;10.15;;;;;;;;;;5022796;28;20745;-57
2023/06/07 04:48:55;;;;;;;19.77;9.18;;;;;;;;;;5012378;28;20262;-57
2023/06/07 04:51:22;;;;;;;20.40;9.85;;;;;;;;;;5022490;28;20212;-57
2023/06/07 04:53:48;;;;;;;23.67;9.82;;;;;;;;;;5005926;28;20228;-57
2023/06/07 04:56:13;;;;;;;22.20;9.68;;;;;;;;;;5003964;28;20239;-57
2023/06/07 04:58:40;;;;;;;24.25;9.18;;;;;;;;;;4997870;28;20212;-57
2023/06/07 05:01:07;;;;;;;18.88;10.40;;;;;;;;;;4994332;28;20243;-56
2023/06/07 05:03:33;;;;;;;25.15;10.73;;;;;;;;;;4995528;28;20216;-57
2023/06/07 05:06:00;;;;;;;21.00;9.25;;;;;;;;;;5021255;28;20302;-57
2023/06/07 05:08:26;;;;;;;21.35;9.50;;;;;;;;;;5022473;28;20644;-57
2023/06/07 05:10:52;;;;;;;20.92;9.45;;;;;;;;;;5023185;28;20232;-57
2023/06/07 05:13:17;;;;;;;22.92;9.55;;;;;;;;;;5019808;28;20633;-57
2023/06/07 05:15:44;;;;;;;22.33;9.02;;;;;;;;;;5007623;28;20209;-57
2023/06/07 05:18:09;;;;;;;21.42;8.85;;;;;;;;;;5003169;28;20291;-57
2023/06/07 05:20:35;;;;;;;20.17;8.85;;;;;;;;;;4999136;28;20213;-57
2023/06/07 05:23:02;;;;;;;18.58;9.13;;;;;;;;;;4994721;28;20547;-56
2023/06/07 05:25:27;;;;;;;20.83;10.27;;;;;;;;;;4995406;28;20228;-57
2023/06/07 05:27:52;;;;;;;22.02;8.77;;;;;;;;;;4999125;28;20224;-57
2023/06/07 05:30:18;;;;;;;16.58;10.07;;;;;;;;;;5002980;28;20228;-57
2023/06/07 05:32:43;;;;;;;22.67;9.80;;;;;;;;;;5002729;28;20223;-57
2023/06/07 05:35:09;;;;;;;21.40;9.30;;;;;;;;;;5002026;28;20222;-57
2023/06/07 05:37:34;;;;;;;18.92;9.60;;;;;;;;;;5003099;28;20255;-57
2023/06/07 05:39:59;;;;;;;19.00;8.98;;;;;;;;;;5003342;28;20212;-57
2023/06/07 05:42:25;;;;;;;18.27;9.68;;;;;;;;;;5000827;28;20208;-57
2023/06/07 05:44:50;;;;;;;22.63;9.48;;;;;;;;;;4995550;28;20853;-57
2023/06/07 05:47:16;;;;;;;20.02;9.25;;;;;;;;;;4994187;28;20225;-58
2023/06/07 05:49:43;;;;;;;20.67;10.50;;;;;;;;;;4997030;28;20213;-57
2023/06/07 05:52:08;;;;;;;21.98;10.02;;;;;;;;;;5029362;28;20345;-57
2023/06/07 05:54:34;;;;;;;22.13;10.18;;;;;;;;;;5032909;28;20310;-57
2023/06/07 05:56:59;;;;;;;22.95;10.80;;;;;;;;;;5047226;28;20499;-57
2023/06/07 05:59:25;;;;;;;22.35;9.75;;;;;;;;;;5051697;28;20301;-56
2023/06/07 06:01:52;;;;;;;20.40;9.77;;;;;;;;;;5051725;28;20211;-57
2023/06/07 06:04:17;;;;;;;21.75;10.00;;;;;;;;;;5050884;28;20215;-57
2023/06/07 06:06:42;;;;;;;26.10;11.15;;;;;;;;;;5052318;28;20219;-57
2023/06/07 06:09:09;;;;;;;20.85;9.70;;;;;;;;;;5051372;28;20199;-57
2023/06/07 06:11:34;;;;;;;18.85;9.63;;;;;;;;;;5051607;28;20234;-57
2023/06/07 06:13:59;;;;;;;20.35;10.00;;;;;;;;;;5051700;28;20573;-57
2023/06/07 06:16:25;;;;;;;21.38;10.55;;;;;;;;;;5031592;28;20459;-57
2023/06/07 06:18:50;;;;;;;18.17;9.48;;;;;;;;;;5031432;28;20211;-57
2023/06/07 06:21:15;;;;;;;22.15;11.07;;;;;;;;;;5031821;28;20212;-57
2023/06/07 06:23:41;;;;;;;21.70;10.38;;;;;;;;;;5031826;28;20235;-57
2023/06/07 06:26:06;;;;;;;20.42;9.80;;;;;;;;;;5029528;28;20734;-57
2023/06/07 06:28:31;;;;;;;18.05;10.52;;;;;;;;;;5032017;28;20211;-57
2023/06/07 06:30:57;;;;;;;19.13;10.80;;;;;;;;;;5030627;28;20505;-57
2023/06/07 06:33:22;;;;;;;22.92;10.80;;;;;;;;;;5022354;28;20227;-57
2023/06/07 06:35:47;;;;;;;20.05;9.70;;;;;;;;;;5028857;28;20294;-57
2023/06/07 06:38:13;;;;;;;20.02;9.75;;;;;;;;;;5031110;28;20230;-56
2023/06/07 06:40:38;;;;;;;23.70;9.88;;;;;;;;;;5031938;28;20291;-57
2023/06/07 06:43:03;;;;;;;23.10;10.27;;;;;;;;;;5031247;28;20208;-56
2023/06/07 06:45:28;;;;;;;25.45;10.82;;;;;;;;;;5031241;28;20235;-57
2023/06/07 06:47:54;;;;;;;22.40;10.38;;;;;;;;;;5030154;28;20261;-56
2023/06/07 06:50:19;;;;;;;22.23;9.60;;;;;;;;;;5017345;28;20578;-56
2023/06/07 06:52:45;;;;;;;20.58;9.35;;;;;;;;;;5033940;28;20667;-56
2023/06/07 06:55:10;;;;;;;20.55;9.90;;;;;;;;;;5019771;28;20224;-56
2023/06/07 06:57:35;;;;;;;17.15;9.38;;;;;;;;;;5044518;28;20215;-56
2023/06/07 07:00:01;;;;;;;19.80;9.88;;;;;;;;;;5039535;28;20276;-57
2023/06/07 07:02:26;;;;;;;22.50;10.27;;;;;;;;;;5026395;28;20227;-57
2023/06/07 07:04:52;;;;;;;21.25;9.90;;;;;;;;;;5027537;28;20208;-57
2023/06/07 07:07:18;;;;;;;19.80;9.60;;;;;;;;;;5028360;28;20236;-56
2023/06/07 07:09:43;;;;;;;17.98;10.40;;;;;;;;;;5035431;28;20669;-57
2023/06/07 07:12:09;;;;;;;23.83;10.23;;;;;;;;;;5034605;28;20211;-56
2023/06/07 07:14:34;;;;;;;21.77;10.55;;;;;;;;;;5037861;28;20302;-56
2023/06/07 07:16:59;;;;;;;19.05;9.88;;;;;;;;;;5055274;28;20234;-56
2023/06/07 07:19:24;;;;;;;23.13;9.32;;;;;;;;;;5054130;28;20257;-56
2023/06/07 07:21:51;;;;;;;20.92;10.05;;;;;;;;;;5024434;28;20234;-57
2023/06/07 07:24:16;;;;;;;21.15;9.90;;;;;;;;;;5024862;28;20577;-57
2023/06/07 07:26:41;;;;;;;23.88;10.52;;;;;;;;;;5015407;28;20710;-57
2023/06/07 07:29:07;;;;;;;18.42;9.75;;;;;;;;;;5023117;28;20219;-57
2023/06/07 07:31:33;;;;;;;22.10;10.05;;;;;;;;;;5034784;28;20258;-57
2023/06/07 07:33:59;;;;;;;20.58;9.75;;;;;;;;;;5034693;28;20226;-56
2023/06/07 07:36:25;;;;;;;19.63;10.07;;;;;;;;;;5033451;28;20299;-56
2023/06/07 07:38:51;;;;;;;20.95;9.77;;;;;;;;;;5034711;28;20243;-57
2023/06/07 07:41:17;;;;;;;22.05;9.77;;;;;;;;;;5033785;28;20207;-56
2023/06/07 07:43:42;;;;;;;20.88;9.82;;;;;;;;;;5034861;28;20204;-57
2023/06/07 07:46:07;;;;;;;24.77;9.95;;;;;;;;;;5033970;28;20211;-56
2023/06/07 07:48:32;;;;;;;19.75;9.88;;;;;;;;;;5034100;28;20215;-56
2023/06/07 07:50:59;;;;;;;19.38;9.80;;;;;;;;;;5034228;28;20674;-57
2023/06/07 07:53:25;;;;;;;22.02;9.57;;;;;;;;;;5048007;28;20273;-57
2023/06/07 07:55:50;;;;;;;17.48;9.00;;;;;;;;;;5046797;28;20595;-57
2023/06/07 07:58:15;;;;;;;20.25;9.07;;;;;;;;;;5033752;28;20223;-57
2023/06/07 08:00:41;;;;;;;19.80;9.50;;;;;;;;;;5034250;28;20228;-57
2023/06/07 08:03:07;;;;;;;19.80;9.57;;;;;;;;;;5033277;28;20216;-57
2023/06/07 08:05:32;;;;;;;20.60;9.80;;;;;;;;;;5033602;28;20208;-57
2023/06/07 08:07:58;;;;;;;18.42;9.55;;;;;;;;;;5034134;28;20235;-57
2023/06/07 08:10:24;;;;;;;18.77;9.63;;;;;;;;;;5033244;28;20211;-57
2023/06/07 08:12:50;;;;;;;16.80;9.30;;;;;;;;;;5034166;28;20200;-57
2023/06/07 08:15:15;;;;;;;20.20;9.10;;;;;;;;;;5033357;28;20208;-57
2023/06/07 08:17:40;;;;;;;20.52;8.30;;;;;;;;;;5031776;28;20789;-57
2023/06/07 08:20:08;;;;;;;22.80;9.02;;;;;;;;;;5032963;28;20283;-56
2023/06/07 08:22:33;;;;;;;21.00;8.82;;;;;;;;;;5033603;28;20208;-57
2023/06/07 08:24:59;;;;;;;15.38;8.25;;;;;;;;;;5034774;28;20216;-58
2023/06/07 08:27:24;;;;;;;23.15;9.60;;;;;;;;;;5052771;28;20640;-57
2023/06/07 08:29:50;;;;;;;19.42;9.70;;;;;;;;;;5053678;28;20211;-57
2023/06/07 08:32:15;;;;;;;17.48;8.93;;;;;;;;;;5052670;28;20214;-57
2023/06/07 08:34:41;;;;;;;18.75;9.63;;;;;;;;;;5051610;28;20230;-57
2023/06/07 08:37:06;;;;;;;18.42;8.82;;;;;;;;;;5044529;28;20204;-57
2023/06/07 08:39:32;;;;;;;16.15;8.90;;;;;;;;;;5034702;28;20214;-57
2023/06/07 08:41:57;;;;;;;17.05;9.68;;;;;;;;;;5053314;28;20222;-58
2023/06/07 08:44:22;;;;;;;19.92;8.88;;;;;;;;;;5053198;28;20290;-58
2023/06/07 08:46:48;;;;;;;19.52;8.40;;;;;;;;;;5053055;28;20294;-57
2023/06/07 08:49:13;;;;;;;18.48;9.43;;;;;;;;;;5052503;28;20601;-57
2023/06/07 08:51:38;;;;;;;19.60;10.18;;;;;;;;;;5052464;28;20563;-58
2023/06/07 08:54:04;;;;;;;21.70;9.27;;;;;;;;;;5051373;28;20665;-56
2023/06/07 08:56:31;;;;;;;16.38;9.18;;;;;;;;;;5040755;28;20230;-57
2023/06/07 08:58:57;;;;;;;17.73;9.98;;;;;;;;;;5032899;28;20222;-57
2023/06/07 09:01:23;;;;;;;20.35;9.75;;;;;;;;;;5031545;28;20573;-58
2023/06/07 09:03:50;;;;;;;18.10;8.43;;;;;;;;;;5032758;28;20200;-58
2023/06/07 09:06:15;;;;;;;18.73;9.50;;;;;;;;;;5030524;28;20295;-58
2023/06/07 09:08:41;;;;;;;17.25;8.93;;;;;;;;;;5031920;28;20299;-58
2023/06/07 09:11:06;;;;;;;21.45;9.60;;;;;;;;;;5031691;28;20212;-57
2023/06/07 09:13:32;;;;;;;21.20;9.65;;;;;;;;;;5032562;28;20220;-57
2023/06/07 09:15:59;;;;;;;20.70;10.15;;;;;;;;;;5032983;28;20212;-57
2023/06/07 09:18:29;;;;;;;22.55;9.48;;;;;;;;;;5031110;28;20219;-57
2023/06/07 09:20:55;;;;;;;20.00;9.55;;;;;;;;;;5030897;28;20204;-58
2023/06/07 09:23:20;;;;;;;19.38;9.52;;;;;;;;;;5032047;28;20983;-57
2023/06/07 09:25:45;;;;;;;22.95;9.90;;;;;;;;;;5031305;28;20219;-57
2023/06/07 09:28:11;;;;;;;22.42;9.80;;;;;;;;;;5030197;28;20216;-57
2023/06/07 09:30:50;;;;;;;18.35;9.52;;;;;;;;;;5032739;28;20236;-58
2023/06/07 09:33:24;;;;;;;18.55;9.43;;;;;;;;;;5031907;28;20230;-57
2023/06/07 09:36:01;;;;;;;19.48;9.02;;;;;;;;;;5031395;28;20212;-58
2023/06/07 09:38:26;;;;;;;20.85;9.85;;;;;;;;;;5046346;28;20206;-58
2023/06/07 09:40:53;;;;;;;23.40;9.82;;;;;;;;;;5046818;28;20203;-57
2023/06/07 09:43:18;;;;;;;21.85;9.45;;;;;;;;;;5031858;28;20306;-57
2023/06/07 09:45:52;;;;;;;17.92;10.23;;;;;;;;;;5032247;28;20291;-58
2023/06/07 09:48:17;;;;;;;17.77;9.27;;;;;;;;;;5031065;28;20245;-58
2023/06/07 09:50:54;;;;;;;21.58;9.13;;;;;;;;;;5031812;28;20211;-58
2023/06/07 09:53:19;;;;;;;17.70;9.07;;;;;;;;;;5044792;28;20569;-57
2023/06/07 09:55:44;;;;;;;18.25;8.95;;;;;;;;;;5045543;28;20755;-57
2023/06/07 09:58:18;;;;;;;18.40;9.40;;;;;;;;;;5030650;28;20218;-57
2023/06/07 10:00:44;;;;;;;19.95;9.57;;;;;;;;;;5031965;28;20214;-57
2023/06/07 10:03:09;;;;;;;18.13;9.02;;;;;;;;;;5030956;28;20208;-57
2023/06/07 10:05:35;;;;;;;20.38;9.65;;;;;;;;;;5031871;28;20670;-58
2023/06/07 10:08:01;;;;;;;17.52;9.18;;;;;;;;;;5031285;28;20207;-56
2023/06/07 10:10:27;;;;;;;21.13;9.38;;;;;;;;;;5030311;28;20199;-58
2023/06/07 10:12:52;;;;;;;19.20;10.40;;;;;;;;;;5031876;28;20212;-58
2023/06/07 10:15:20;;;;;;;16.85;9.07;;;;;;;;;;5031520;28;20578;-58
2023/06/07 10:17:49;;;;;;;18.65;9.48;;;;;;;;;;5044017;28;20649;-58
2023/06/07 10:20:18;;;;;;;20.77;8.80;;;;;;;;;;5050945;28;20222;-57
2023/06/07 10:22:44;;;;;;;20.25;10.02;;;;;;;;;;5049790;28;20242;-58
2023/06/07 10:25:13;;;;;;;19.10;9.23;;;;;;;;;;5033807;28;20231;-57
2023/06/07 10:27:43;;;;;;;19.17;9.07;;;;;;;;;;5035980;28;20634;-58
2023/06/07 10:30:09;;;;;;;20.50;8.98;;;;;;;;;;5033697;28;20211;-57
2023/06/07 10:32:35;;;;;;;19.75;9.18;;;;;;;;;;5036109;28;20694;-57
2023/06/07 10:35:01;;;;;;;20.60;8.27;;;;;;;;;;5035061;28;20254;-57
2023/06/07 10:37:30;;;;;;;16.10;8.27;;;;;;;;;;5034085;28;20204;-57
2023/06/07 10:39:56;;;;;;;16.58;8.45;;;;;;;;;;5035866;28;20303;-57
2023/06/07 10:42:21;;;;;;;15.55;8.00;;;;;;;;;;5035328;28;20302;-57
2023/06/07 10:44:46;;;;;;;17.80;8.38;;;;;;;;;;5034112;28;20678;-58
2023/06/07 10:47:21;;;;;;;15.60;8.52;;;;;;;;;;5035463;28;20686;-57
2023/06/07 10:49:46;;;;;;;17.23;8.68;;;;;;;;;;5035350;28;20211;-58
2023/06/07 10:52:14;;;;;;;17.02;8.02;;;;;;;;;;5038727;28;20210;-58
2023/06/07 10:54:41;;;;;;;15.18;7.88;;;;;;;;;;5055328;28;20701;-58
2023/06/07 10:57:06;;;;;;;22.00;8.48;;;;;;;;;;5037236;28;20246;-57
2023/06/07 10:59:32;;;;;;;17.70;7.80;;;;;;;;;;5033910;28;20232;-58
2023/06/07 11:02:16;;;;;;;23.27;8.85;;;;;;;;;;5035553;28;20207;-58
2023/06/07 11:04:42;;;;;;;14.63;7.88;;;;;;;;;;5034747;28;20227;-57
2023/06/07 11:07:15;;;;;;;19.55;7.88;;;;;;;;;;5034347;28;20298;-58
2023/06/07 11:09:41;;;;;;;16.35;8.18;;;;;;;;;;5034995;28;20216;-58
2023/06/07 11:12:07;;;;;;;13.98;7.85;;;;;;;;;;5034668;28;20258;-57
2023/06/07 11:14:32;;;;;;;16.92;7.93;;;;;;;;;;5035248;28;20679;-58
2023/06/07 11:16:57;;;;;;;19.77;8.77;;;;;;;;;;5035370;28;20219;-57
2023/06/07 11:19:23;;;;;;;19.10;8.18;;;;;;;;;;5033892;28;20735;-58
2023/06/07 11:21:55;;;;;;;14.73;7.70;;;;;;;;;;5035251;28;20282;-57
2023/06/07 11:24:21;;;;;;;13.32;7.57;;;;;;;;;;5034259;28;20230;-58
2023/06/07 11:26:47;;;;;;;13.55;8.20;;;;;;;;;;5034501;28;20203;-58
2023/06/07 11:29:13;;;;;;;17.55;8.77;;;;;;;;;;5034546;28;20215;-58
2023/06/07 11:31:39;;;;;;;19.77;8.90;;;;;;;;;;5033473;28;20793;-58
2023/06/07 11:34:04;;;;;;;17.35;8.63;;;;;;;;;;5032755;28;20255;-58
2023/06/07 11:36:31;;;;;;;16.00;8.30;;;;;;;;;;5034905;28;20552;-57
2023/06/07 11:38:59;;;;;;;17.52;7.50;;;;;;;;;;5034670;28;20231;-58
2023/06/07 11:41:24;;;;;;;15.27;8.63;;;;;;;;;;5033746;28;20360;-57
2023/06/07 11:43:49;;;;;;;16.75;8.45;;;;;;;;;;5034751;28;20678;-58
2023/06/07 11:46:15;;;;;;;14.77;8.07;;;;;;;;;;5034168;28;20247;-58
2023/06/07 11:48:41;;;;;;;20.00;9.63;;;;;;;;;;5034108;28;20231;-58
2023/06/07 11:51:06;;;;;;;18.65;8.25;;;;;;;;;;5033933;28;20281;-57
2023/06/07 11:53:32;;;;;;;17.30;8.50;;;;;;;;;;5049408;28;20697;-58
2023/06/07 11:55:58;;;;;;;16.55;8.27;;;;;;;;;;5045898;28;20234;-58
2023/06/07 11:58:23;;;;;;;15.60;7.97;;;;;;;;;;5032682;28;20212;-58
2023/06/07 12:00:49;;;;;;;22.70;8.35;;;;;;;;;;5041102;28;20227;-58
2023/06/07 12:03:16;;;;;;;16.13;7.97;;;;;;;;;;5036690;28;20299;-58
2023/06/07 12:05:41;;;;;;;17.52;8.45;;;;;;;;;;5027967;28;20290;-58
2023/06/07 12:08:08;;;;;;;14.65;8.05;;;;;;;;;;5033776;28;20683;-58
2023/06/07 12:10:33;;;;;;;16.65;8.45;;;;;;;;;;5032341;28;20695;-58
2023/06/07 12:13:12;;;;;;;15.73;7.65;;;;;;;;;;5033809;28;20207;-58
2023/06/07 12:15:44;;;;;;;14.55;7.95;;;;;;;;;;5038131;28;20415;-57
2023/06/07 12:18:11;;;;;;;12.27;6.88;;;;;;;;;;5053488;28;20214;-57
2023/06/07 12:20:36;;;;;;;21.13;8.30;;;;;;;;;;5053429;28;20219;-57
2023/06/07 12:23:02;;;;;;;17.50;7.85;;;;;;;;;;5052381;28;20629;-57
2023/06/07 12:25:28;;;;;;;14.50;7.43;;;;;;;;;;5053717;28;20298;-58
2023/06/07 12:27:53;;;;;;;16.98;8.32;;;;;;;;;;5053485;28;20614;-59
2023/06/07 12:30:19;;;;;;;15.20;7.68;;;;;;;;;;5052844;28;20203;-58
2023/06/07 12:32:44;;;;;;;15.00;7.75;;;;;;;;;;5053524;28;20207;-57
2023/06/07 12:35:10;;;;;;;17.00;7.90;;;;;;;;;;5052669;28;20207;-57
2023/06/07 12:37:36;;;;;;;17.17;7.75;;;;;;;;;;5053254;28;20222;-57
2023/06/07 12:40:02;;;;;;;17.17;7.95;;;;;;;;;;5053068;28;20670;-56
2023/06/07 12:42:28;;;;;;;18.92;7.60;;;;;;;;;;5045696;28;20211;-57
2023/06/07 12:44:54;;;;;;;14.65;7.18;;;;;;;;;;5031820;28;20215;-57
2023/06/07 12:47:20;;;;;;;15.68;6.85;;;;;;;;;;5032815;28;20227;-57
2023/06/07 12:49:45;;;;;;;14.38;7.30;;;;;;;;;;5033149;28;20204;-57
2023/06/07 12:52:10;;;;;;;19.27;7.05;;;;;;;;;;5036242;28;20226;-58
2023/06/07 12:54:36;;;;;;;17.02;7.32;;;;;;;;;;5036862;28;20224;-58
2023/06/07 12:57:01;;;;;;;12.40;6.68;;;;;;;;;;5032636;28;20263;-57
2023/06/07 12:59:26;;;;;;;15.98;6.75;;;;;;;;;;5032366;28;20219;-58
2023/06/07 13:01:52;;;;;;;18.45;6.93;;;;;;;;;;5048078;28;20206;-57
2023/06/07 13:04:17;;;;;;;16.02;6.97;;;;;;;;;;5038834;28;20220;-57
2023/06/07 13:06:43;;;;;;;15.18;8.05;;;;;;;;;;5032574;28;20215;-58
2023/06/07 13:09:08;;;;;;;14.25;6.38;;;;;;;;;;5032514;28;20211;-57
2023/06/07 13:11:34;;;;;;;17.00;7.88;;;;;;;;;;5032941;28;20235;-58
2023/06/07 13:13:59;;;;;;;13.55;7.20;;;;;;;;;;5032233;28;20224;-57
2023/06/07 13:16:25;;;;;;;15.88;8.15;;;;;;;;;;5032239;28;20208;-57
2023/06/07 13:18:51;;;;;;;14.48;6.70;;;;;;;;;;5031898;28;20242;-58
2023/06/07 13:21:17;;;;;;;19.85;8.02;;;;;;;;;;5034333;28;20212;-58
2023/06/07 13:23:43;;;;;;;17.08;6.80;;;;;;;;;;5023401;28;20215;-57
2023/06/07 13:26:08;;;;;;;16.15;7.43;;;;;;;;;;5017060;28;20205;-57
2023/06/07 13:28:33;;;;;;;15.90;7.13;;;;;;;;;;5012185;28;20423;-58
2023/06/07 13:30:59;;;;;;;13.18;6.82;;;;;;;;;;5012810;28;20215;-58
2023/06/07 13:33:24;;;;;;;14.00;5.80;;;;;;;;;;5011648;28;20298;-57
2023/06/07 13:35:50;;;;;;;16.52;6.43;;;;;;;;;;5012871;28;20574;-58
2023/06/07 13:38:15;;;;;;;15.13;6.15;;;;;;;;;;5012318;28;20220;-58
2023/06/07 13:40:40;;;;;;;19.50;6.05;;;;;;;;;;5012329;28;20647;-58
2023/06/07 13:43:06;;;;;;;14.63;5.63;;;;;;;;;;5012178;28;20219;-58
2023/06/07 13:45:31;;;;;;;11.45;5.05;;;;;;;;;;5012348;28;20259;-57
2023/06/07 13:47:57;;;;;;;11.15;4.97;;;;;;;;;;5011940;28;20212;-58
2023/06/07 13:50:22;;;;;;;15.18;5.03;;;;;;;;;;5012072;28;20552;-58
2023/06/07 13:52:50;;;;;;;12.48;5.40;;;;;;;;;;5030321;28;20227;-58
2023/06/07 13:55:16;;;;;;;13.15;5.50;;;;;;;;;;5049046;28;20250;-58
2023/06/07 13:57:41;;;;;;;9.38;4.57;;;;;;;;;;5031816;28;20211;-58
2023/06/07 14:00:08;;;;;;;12.07;4.97;;;;;;;;;;5031673;28;20208;-57
2023/06/07 14:02:33;;;;;;;13.90;4.80;;;;;;;;;;5031526;28;20207;-58
2023/06/07 14:05:00;;;;;;;14.00;5.28;;;;;;;;;;5031559;28;20219;-58
2023/06/07 14:07:25;;;;;;;13.05;5.20;;;;;;;;;;5039343;28;20265;-58
2023/06/07 14:09:51;;;;;;;11.80;4.63;;;;;;;;;;5031783;28;20679;-57
2023/06/07 14:12:18;;;;;;;9.90;5.22;;;;;;;;;;5019873;28;20242;-58
2023/06/07 14:14:43;;;;;;;16.95;5.63;;;;;;;;;;5023434;28;20287;-58
2023/06/07 14:17:08;;;;;;;12.73;5.35;;;;;;;;;;5020786;28;20683;-58
2023/06/07 14:19:34;;;;;;;14.25;5.15;;;;;;;;;;5020217;28;20216;-57
2023/06/07 14:21:59;;;;;;;13.48;4.80;;;;;;;;;;5024378;28;20210;-58